createdAt,value
2018-05-16T00:00:52.534Z,17.60
2018-05-16T00:03:20.488Z,17.60
2018-05-16T00:05:48.479Z,17.70
2018-05-16T00:08:15.663Z,17.70
2018-05-16T00:10:42.827Z,17.70
2018-05-16T00:13:10.767Z,17.60
2018-05-16T00:15:38.785Z,17.60
2018-05-16T00:18:06.891Z,17.70
2018-05-16T00:20:35.084Z,17.60
2018-05-16T00:23:02.264Z,17.60
2018-05-16T00:25:30.211Z,17.60
2018-05-16T00:27:57.376Z,17.60
2018-05-16T00:30:24.547Z,17.60
2018-05-16T00:32:53.376Z,17.60
2018-05-16T00:35:20.547Z,17.60
2018-05-16T00:37:47.708Z,17.60
2018-05-16T00:40:14.879Z,17.60
2018-05-16T00:42:42.047Z,17.60
2018-05-16T00:45:09.976Z,17.60
2018-05-16T00:47:37.192Z,17.60
2018-05-16T00:50:04.355Z,17.60
2018-05-16T00:52:31.525Z,17.60
2018-05-16T00:54:58.695Z,17.60
2018-05-16T00:57:25.867Z,17.60
2018-05-16T00:59:53.804Z,17.60
2018-05-16T01:02:20.972Z,17.60
2018-05-16T01:04:48.137Z,17.60
2018-05-16T01:07:16.068Z,17.60
2018-05-16T01:09:43.272Z,17.60
2018-05-16T01:12:11.203Z,17.60
2018-05-16T01:14:38.368Z,17.60
2018-05-16T01:17:05.531Z,17.60
2018-05-16T01:19:33.469Z,17.60
2018-05-16T01:22:01.552Z,17.60
2018-05-16T01:24:28.719Z,17.60
2018-05-16T01:26:55.933Z,17.60
2018-05-16T01:29:23.105Z,17.60
2018-05-16T01:31:50.576Z,17.60
2018-05-16T01:34:19.331Z,17.60
2018-05-16T01:36:46.584Z,17.60
2018-05-16T01:39:13.839Z,17.60
2018-05-16T01:41:41.008Z,17.60
2018-05-16T01:44:08.988Z,17.60
2018-05-16T01:46:36.155Z,17.60
2018-05-16T01:49:10.116Z,17.60
2018-05-16T01:51:37.370Z,17.60
2018-05-16T01:54:04.544Z,17.60
2018-05-16T01:56:32.694Z,17.50
2018-05-16T01:59:00.875Z,17.60
2018-05-16T02:01:28.075Z,17.50
2018-05-16T02:03:56.099Z,17.50
2018-05-16T02:06:23.304Z,17.50
2018-05-16T02:08:52.262Z,17.50
2018-05-16T02:11:19.472Z,17.50
2018-05-16T02:13:46.652Z,17.50
2018-05-16T02:16:13.904Z,17.60
2018-05-16T02:18:41.889Z,17.60
2018-05-16T02:21:09.108Z,17.50
2018-05-16T02:23:36.379Z,17.50
2018-05-16T02:26:03.552Z,17.50
2018-05-16T02:28:30.783Z,17.60
2018-05-16T02:30:57.956Z,17.50
2018-05-16T02:33:25.224Z,17.50
2018-05-16T02:35:52.396Z,17.50
2018-05-16T02:38:20.327Z,17.50
2018-05-16T02:40:47.500Z,17.50
2018-05-16T02:43:14.780Z,17.60
2018-05-16T02:45:42.000Z,17.50
2018-05-16T02:48:09.169Z,17.50
2018-05-16T02:50:37.195Z,17.50
2018-05-16T02:53:04.379Z,17.50
2018-05-16T02:55:31.552Z,17.50
2018-05-16T02:57:59.488Z,17.50
2018-05-16T03:00:27.442Z,17.50
2018-05-16T03:02:54.609Z,17.50
2018-05-16T03:05:22.658Z,17.60
2018-05-16T03:07:49.823Z,17.50
2018-05-16T03:10:17.001Z,17.60
2018-05-16T03:12:44.940Z,17.50
2018-05-16T03:15:12.104Z,17.50
2018-05-16T03:17:39.269Z,17.50
2018-05-16T03:20:06.436Z,17.50
2018-05-16T03:22:34.368Z,17.50
2018-05-16T03:25:01.535Z,17.50
2018-05-16T03:27:28.703Z,17.50
2018-05-16T03:29:56.641Z,17.50
2018-05-16T03:32:23.807Z,17.50
2018-05-16T03:34:50.977Z,17.50
2018-05-16T03:37:18.916Z,17.50
2018-05-16T03:39:46.079Z,17.50
2018-05-16T03:42:14.031Z,17.50
2018-05-16T03:44:42.104Z,17.50
2018-05-16T03:47:10.177Z,17.60
2018-05-16T03:49:38.340Z,17.50
2018-05-16T03:52:05.602Z,17.50
2018-05-16T03:54:33.564Z,17.50
2018-05-16T03:57:00.736Z,17.50
2018-05-16T03:59:34.005Z,17.50
2018-05-16T04:02:06.957Z,17.60
2018-05-16T04:04:34.935Z,17.90
2018-05-16T04:07:02.102Z,17.90
2018-05-16T04:09:29.270Z,18.00
2018-05-16T04:11:56.445Z,18.00
2018-05-16T04:14:23.616Z,18.10
2018-05-16T04:16:51.659Z,18.20
2018-05-16T04:19:18.830Z,18.30
2018-05-16T04:21:46.000Z,18.30
2018-05-16T04:24:13.941Z,18.30
2018-05-16T04:26:41.891Z,18.30
2018-05-16T04:29:09.139Z,18.30
2018-05-16T04:31:36.396Z,18.30
2018-05-16T04:34:03.559Z,18.30
2018-05-16T04:36:31.723Z,18.30
2018-05-16T04:38:58.887Z,18.30
2018-05-16T04:41:26.060Z,18.30
2018-05-16T04:43:53.375Z,18.30
2018-05-16T04:46:21.191Z,18.30
2018-05-16T04:48:49.760Z,18.30
2018-05-16T04:51:16.984Z,18.30
2018-05-16T04:53:44.295Z,18.30
2018-05-16T04:56:13.044Z,18.30
2018-05-16T04:58:41.083Z,18.30
2018-05-16T05:01:08.345Z,18.30
2018-05-16T05:03:35.511Z,18.30
2018-05-16T05:06:03.635Z,18.30
2018-05-16T05:08:31.569Z,18.30
2018-05-16T05:10:59.569Z,18.30
2018-05-16T05:13:27.500Z,18.20
2018-05-16T05:15:55.612Z,18.20
2018-05-16T05:18:23.636Z,18.20
2018-05-16T05:20:51.564Z,18.20
2018-05-16T05:23:18.771Z,18.20
2018-05-16T05:25:45.936Z,18.20
2018-05-16T05:28:13.108Z,18.20
2018-05-16T05:30:41.127Z,18.10
2018-05-16T05:33:08.331Z,18.10
2018-05-16T05:35:36.272Z,18.10
2018-05-16T05:38:04.295Z,18.10
2018-05-16T05:40:32.273Z,18.10
2018-05-16T05:43:00.363Z,18.10
2018-05-16T05:45:27.537Z,18.10
2018-05-16T05:47:54.700Z,18.10
2018-05-16T05:50:21.868Z,18.20
2018-05-16T05:52:49.892Z,18.20
2018-05-16T05:55:17.060Z,18.20
2018-05-16T05:57:44.228Z,18.20
2018-05-16T06:00:11.457Z,18.20
2018-05-16T06:02:38.628Z,18.20
2018-05-16T06:05:05.847Z,18.20
2018-05-16T06:07:33.016Z,18.10
2018-05-16T06:10:01.031Z,18.10
2018-05-16T06:12:30.868Z,18.10
2018-05-16T06:14:58.880Z,18.10
2018-05-16T06:17:26.048Z,18.10
2018-05-16T06:19:53.288Z,18.10
2018-05-16T06:22:21.412Z,18.10
2018-05-16T06:24:49.347Z,18.10
2018-05-16T06:27:17.500Z,18.10
2018-05-16T06:29:44.653Z,18.10
2018-05-16T06:32:12.621Z,18.10
2018-05-16T06:34:39.795Z,18.10
2018-05-16T06:37:07.792Z,18.10
2018-05-16T06:39:35.736Z,18.10
2018-05-16T06:42:03.990Z,18.10
2018-05-16T06:44:31.247Z,18.10
2018-05-16T06:46:58.496Z,18.10
2018-05-16T06:49:25.857Z,18.10
2018-05-16T06:51:53.929Z,18.10
2018-05-16T06:54:22.041Z,18.10
2018-05-16T06:56:50.141Z,18.10
2018-05-16T06:59:18.054Z,18.10
2018-05-16T07:01:45.221Z,18.10
2018-05-16T07:04:13.373Z,18.00
2018-05-16T07:06:40.536Z,18.00
2018-05-16T07:09:07.706Z,18.00
2018-05-16T07:11:34.930Z,18.00
2018-05-16T07:14:02.185Z,18.00
2018-05-16T07:16:29.348Z,18.00
2018-05-16T07:18:56.564Z,18.00
2018-05-16T07:21:23.769Z,18.00
2018-05-16T07:23:50.936Z,18.00
2018-05-16T07:26:19.656Z,18.00
2018-05-16T07:28:47.720Z,18.00
2018-05-16T07:31:14.927Z,18.00
2018-05-16T07:33:42.099Z,18.00
2018-05-16T07:36:10.851Z,18.00
2018-05-16T07:38:39.836Z,18.00
2018-05-16T07:41:07.916Z,18.00
2018-05-16T07:43:35.991Z,18.00
2018-05-16T07:46:04.069Z,18.00
2018-05-16T07:48:31.251Z,18.00
2018-05-16T07:51:00.167Z,18.00
2018-05-16T07:53:27.554Z,18.00
2018-05-16T07:55:54.734Z,18.00
2018-05-16T07:58:22.696Z,18.00
2018-05-16T08:00:50.661Z,18.00
2018-05-16T08:03:18.791Z,18.00
2018-05-16T08:05:46.847Z,18.00
2018-05-16T08:08:15.781Z,18.00
2018-05-16T08:10:43.901Z,18.00
2018-05-16T08:13:11.067Z,18.00
2018-05-16T08:15:39.079Z,18.00
2018-05-16T08:18:06.268Z,18.00
2018-05-16T08:20:36.075Z,18.00
2018-05-16T08:23:04.383Z,18.00
2018-05-16T08:25:32.488Z,18.00
2018-05-16T08:27:59.651Z,18.00
2018-05-16T08:30:26.816Z,18.00
2018-05-16T08:32:54.881Z,18.00
2018-05-16T08:35:22.045Z,18.00
2018-05-16T08:37:50.083Z,18.00
2018-05-16T08:40:18.034Z,18.00
2018-05-16T08:42:45.988Z,18.00
2018-05-16T08:45:13.997Z,18.00
2018-05-16T08:47:42.579Z,18.00
2018-05-16T08:50:10.672Z,18.00
2018-05-16T08:52:37.833Z,18.00
2018-05-16T08:55:05.901Z,18.00
2018-05-16T08:57:33.968Z,18.00
2018-05-16T09:00:01.132Z,18.00
2018-05-16T09:02:29.065Z,18.00
2018-05-16T09:04:56.224Z,18.00
2018-05-16T09:07:24.240Z,18.00
2018-05-16T09:09:52.164Z,18.00
2018-05-16T09:12:20.249Z,18.00
2018-05-16T09:14:48.324Z,18.00
2018-05-16T09:17:15.537Z,18.00
2018-05-16T09:19:44.356Z,18.00
2018-05-16T09:22:12.427Z,18.00
2018-05-16T09:24:40.595Z,18.00
2018-05-16T09:27:08.521Z,18.00
2018-05-16T09:29:37.220Z,18.00
2018-05-16T09:32:06.063Z,18.00
2018-05-16T09:34:33.224Z,18.00
2018-05-16T09:37:01.177Z,18.00
2018-05-16T09:39:29.139Z,18.00
2018-05-16T09:41:57.130Z,18.00
2018-05-16T09:44:25.103Z,18.00
2018-05-16T09:46:52.700Z,18.00
2018-05-16T09:49:21.444Z,18.00
2018-05-16T09:51:49.395Z,18.00
2018-05-16T09:54:17.508Z,18.00
2018-05-16T09:56:45.593Z,18.00
2018-05-16T09:59:13.531Z,18.00
2018-05-16T10:01:41.592Z,17.90
2018-05-16T10:04:09.653Z,18.00
2018-05-16T10:06:37.371Z,18.00
2018-05-16T10:09:05.307Z,18.00
2018-05-16T10:11:33.417Z,18.00
2018-05-16T10:14:02.246Z,18.00
2018-05-16T10:16:30.364Z,18.00
2018-05-16T10:18:57.520Z,18.00
2018-05-16T10:21:25.467Z,18.00
2018-05-16T10:23:52.765Z,18.00
2018-05-16T10:26:19.896Z,18.00
2018-05-16T10:28:47.984Z,18.00
2018-05-16T10:31:16.059Z,18.00
2018-05-16T10:33:44.979Z,18.00
2018-05-16T10:36:12.920Z,18.00
2018-05-16T10:38:40.847Z,18.00
2018-05-16T10:41:08.015Z,18.00
2018-05-16T10:43:35.180Z,18.00
2018-05-16T10:46:02.344Z,17.90
2018-05-16T10:48:31.853Z,18.00
2018-05-16T10:51:00.556Z,18.00
2018-05-16T10:53:27.751Z,18.00
2018-05-16T10:55:54.912Z,18.00
2018-05-16T10:58:23.062Z,18.00
2018-05-16T11:00:51.133Z,18.00
2018-05-16T11:03:19.293Z,18.00
2018-05-16T11:05:47.309Z,17.90
2018-05-16T11:08:14.519Z,18.00
2018-05-16T11:10:41.685Z,17.90
2018-05-16T11:13:09.756Z,18.00
2018-05-16T11:15:36.972Z,17.90
2018-05-16T11:18:05.817Z,17.90
2018-05-16T11:20:32.980Z,17.90
2018-05-16T11:23:00.144Z,17.90
2018-05-16T11:25:27.308Z,17.90
2018-05-16T11:27:55.264Z,17.90
2018-05-16T11:30:22.436Z,17.90
2018-05-16T11:32:49.603Z,17.90
2018-05-16T11:35:16.770Z,17.90
2018-05-16T11:37:43.984Z,17.90
2018-05-16T11:40:12.100Z,17.90
2018-05-16T11:42:39.263Z,17.90
2018-05-16T11:45:06.471Z,18.00
2018-05-16T11:47:34.420Z,17.90
2018-05-16T11:50:02.401Z,17.90
2018-05-16T11:52:30.343Z,17.90
2018-05-16T11:54:57.507Z,17.90
2018-05-16T11:57:24.673Z,17.90
2018-05-16T11:59:52.688Z,17.90
2018-05-16T12:02:20.814Z,17.90
2018-05-16T12:04:48.744Z,17.90
2018-05-16T12:07:16.900Z,17.90
2018-05-16T12:09:44.067Z,17.90
2018-05-16T12:12:12.006Z,17.90
2018-05-16T12:14:39.309Z,17.90
2018-05-16T12:17:07.384Z,17.90
2018-05-16T12:19:35.448Z,17.90
2018-05-16T12:22:03.511Z,17.90
2018-05-16T12:24:31.620Z,17.90
2018-05-16T12:27:00.457Z,17.90
2018-05-16T12:29:27.660Z,17.90
2018-05-16T12:31:55.732Z,17.90
2018-05-16T12:34:23.799Z,17.90
2018-05-16T12:36:51.864Z,17.90
2018-05-16T12:39:19.929Z,17.90
2018-05-16T12:41:48.028Z,17.90
2018-05-16T12:44:16.973Z,17.90
2018-05-16T12:46:44.505Z,17.90
2018-05-16T12:49:11.907Z,17.90
2018-05-16T12:51:39.104Z,17.90
2018-05-16T12:54:07.801Z,17.90
2018-05-16T12:56:35.903Z,17.90
2018-05-16T12:59:03.833Z,17.90
2018-05-16T13:01:32.027Z,17.90
2018-05-16T13:03:59.164Z,17.90
2018-05-16T13:06:27.204Z,17.90
2018-05-16T13:08:54.362Z,17.90
2018-05-16T13:11:21.525Z,17.90
2018-05-16T13:13:48.690Z,17.90
2018-05-16T13:16:15.865Z,17.90
2018-05-16T13:18:43.830Z,17.90
2018-05-16T13:21:11.765Z,17.90
2018-05-16T13:23:38.973Z,17.90
2018-05-16T13:26:06.136Z,17.90
2018-05-16T13:28:34.196Z,17.90
2018-05-16T13:31:02.197Z,17.90
2018-05-16T13:33:29.396Z,17.90
2018-05-16T13:35:57.420Z,17.90
2018-05-16T13:38:24.673Z,17.90
2018-05-16T13:40:51.844Z,17.90
2018-05-16T13:43:19.904Z,17.90
2018-05-16T13:45:47.154Z,17.90
2018-05-16T13:48:14.409Z,17.90
2018-05-16T13:50:42.391Z,17.90
2018-05-16T13:53:09.556Z,17.90
2018-05-16T13:55:36.723Z,17.90
2018-05-16T13:58:03.884Z,17.90
2018-05-16T14:00:31.811Z,17.90
2018-05-16T14:02:59.055Z,17.90
2018-05-16T14:05:26.221Z,17.90
2018-05-16T14:07:54.324Z,17.80
2018-05-16T14:10:22.251Z,17.90
2018-05-16T14:12:50.268Z,17.80
2018-05-16T14:15:18.252Z,17.90
2018-05-16T14:17:46.306Z,17.90
2018-05-16T14:20:15.157Z,17.90
2018-05-16T14:22:43.211Z,17.90
2018-05-16T14:25:10.374Z,17.90
2018-05-16T14:27:37.576Z,17.90
2018-05-16T14:30:05.509Z,17.90
2018-05-16T14:32:33.612Z,17.90
2018-05-16T14:35:00.776Z,17.90
2018-05-16T14:37:28.705Z,17.90
2018-05-16T14:39:55.866Z,17.90
2018-05-16T14:42:23.025Z,17.90
2018-05-16T14:44:50.189Z,17.80
2018-05-16T14:47:18.133Z,17.80
2018-05-16T14:49:45.296Z,17.90
2018-05-16T14:52:12.460Z,17.90
2018-05-16T14:54:39.620Z,17.90
2018-05-16T14:57:07.555Z,17.80
2018-05-16T14:59:34.720Z,17.80
2018-05-16T15:02:01.883Z,17.80
2018-05-16T15:04:29.821Z,17.80
2018-05-16T15:06:56.987Z,17.80
2018-05-16T15:09:24.197Z,17.80
2018-05-16T15:11:51.355Z,17.80
2018-05-16T15:14:19.300Z,17.80
2018-05-16T15:16:46.468Z,17.80
2018-05-16T15:19:13.633Z,17.80
2018-05-16T15:21:40.848Z,17.80
2018-05-16T15:24:08.776Z,17.80
2018-05-16T15:26:35.945Z,17.80
2018-05-16T15:29:03.877Z,17.80
2018-05-16T15:31:31.949Z,17.80
2018-05-16T15:33:59.115Z,17.80
2018-05-16T15:36:26.272Z,17.80
2018-05-16T15:38:53.492Z,17.80
2018-05-16T15:41:20.659Z,17.80
2018-05-16T15:43:47.833Z,17.80
2018-05-16T15:46:15.901Z,17.80
2018-05-16T15:48:43.065Z,17.80
2018-05-16T15:51:11.000Z,17.80
2018-05-16T15:53:38.169Z,17.80
2018-05-16T15:56:06.254Z,17.80
2018-05-16T15:58:33.484Z,17.80
2018-05-16T16:01:00.651Z,17.80
2018-05-16T16:03:28.807Z,17.80
2018-05-16T16:05:56.796Z,17.80
2018-05-16T16:08:23.960Z,17.80
2018-05-16T16:10:51.124Z,17.80
2018-05-16T16:13:19.086Z,17.80
2018-05-16T16:15:46.248Z,17.80
2018-05-16T16:18:15.081Z,17.80
2018-05-16T16:20:42.244Z,17.80
2018-05-16T16:23:10.191Z,17.80
2018-05-16T16:25:38.259Z,17.80
2018-05-16T16:28:05.462Z,17.80
2018-05-16T16:30:32.626Z,17.80
2018-05-16T16:32:59.824Z,17.80
2018-05-16T16:35:26.987Z,17.80
2018-05-16T16:37:55.040Z,17.80
2018-05-16T16:40:23.154Z,17.80
2018-05-16T16:42:51.211Z,17.80
2018-05-16T16:45:19.285Z,17.80
2018-05-16T16:47:47.355Z,17.80
2018-05-16T16:50:15.464Z,17.80
2018-05-16T16:52:43.536Z,17.70
2018-05-16T16:55:10.749Z,17.70
2018-05-16T16:57:38.820Z,17.80
2018-05-16T17:00:06.990Z,17.80
2018-05-16T17:02:35.075Z,17.80
2018-05-16T17:05:02.360Z,17.80
2018-05-16T17:07:30.477Z,17.80
2018-05-16T17:09:57.660Z,17.80
2018-05-16T17:12:24.908Z,17.80
2018-05-16T17:14:52.077Z,17.80
2018-05-16T17:17:19.240Z,17.80
2018-05-16T17:19:46.496Z,17.80
2018-05-16T17:22:13.716Z,17.70
2018-05-16T17:24:40.970Z,17.70
2018-05-16T17:27:09.044Z,17.70
2018-05-16T17:29:36.208Z,17.70
2018-05-16T17:32:03.441Z,17.80
2018-05-16T17:34:30.649Z,17.80
2018-05-16T17:36:58.672Z,17.80
2018-05-16T17:39:32.671Z,17.70
2018-05-16T17:41:59.937Z,17.70
2018-05-16T17:44:27.111Z,17.70
2018-05-16T17:46:54.337Z,17.70
2018-05-16T17:49:21.597Z,17.70
2018-05-16T17:51:48.769Z,17.70
2018-05-16T17:54:15.931Z,17.70
2018-05-16T17:56:43.096Z,17.70
2018-05-16T17:59:11.045Z,17.80
2018-05-16T18:01:38.283Z,17.70
2018-05-16T18:04:05.454Z,17.70
2018-05-16T18:06:32.753Z,17.80
2018-05-16T18:08:59.928Z,17.70
2018-05-16T18:11:27.112Z,17.80
2018-05-16T18:14:00.212Z,17.80
2018-05-16T18:16:33.396Z,17.70
2018-05-16T18:19:00.560Z,17.70
2018-05-16T18:21:28.549Z,17.70
2018-05-16T18:23:57.377Z,17.70
2018-05-16T18:26:24.628Z,17.70
2018-05-16T18:28:52.601Z,17.70
2018-05-16T18:31:20.737Z,17.70
2018-05-16T18:33:48.744Z,17.70
2018-05-16T18:36:15.997Z,17.70
2018-05-16T18:38:43.253Z,17.80
2018-05-16T18:41:11.239Z,17.90
2018-05-16T18:43:39.299Z,18.00
2018-05-16T18:46:06.550Z,18.10
2018-05-16T18:48:34.319Z,18.30
2018-05-16T18:51:02.388Z,18.40
2018-05-16T18:53:29.556Z,18.50
2018-05-16T18:55:56.780Z,18.50
2018-05-16T18:58:23.952Z,18.60
2018-05-16T19:00:51.297Z,18.70
2018-05-16T19:03:19.166Z,18.70
2018-05-16T19:05:46.442Z,18.70
2018-05-16T19:08:13.616Z,18.70
2018-05-16T19:10:40.824Z,18.70
2018-05-16T19:13:09.000Z,18.70
2018-05-16T19:15:37.207Z,18.70
2018-05-16T19:18:04.531Z,18.60
2018-05-16T19:20:31.885Z,18.60
2018-05-16T19:22:59.347Z,18.60
2018-05-16T19:25:26.536Z,18.60
2018-05-16T19:27:54.483Z,18.60
2018-05-16T19:30:21.712Z,18.60
2018-05-16T19:32:49.075Z,18.60
2018-05-16T19:35:16.244Z,18.50
2018-05-16T19:37:44.294Z,18.50
2018-05-16T19:40:12.372Z,18.50
2018-05-16T19:42:40.541Z,18.50
2018-05-16T19:45:07.751Z,18.50
2018-05-16T19:47:35.688Z,18.50
2018-05-16T19:50:02.858Z,18.50
2018-05-16T19:52:30.070Z,18.50
2018-05-16T19:54:58.041Z,18.50
2018-05-16T19:57:26.232Z,18.40
2018-05-16T19:59:53.427Z,18.40
2018-05-16T20:02:21.383Z,18.40
2018-05-16T20:04:48.698Z,18.40
2018-05-16T20:07:15.937Z,18.40
2018-05-16T20:09:43.199Z,18.40
2018-05-16T20:12:10.451Z,18.40
2018-05-16T20:14:38.588Z,18.40
2018-05-16T20:17:05.760Z,18.40
2018-05-16T20:19:33.855Z,18.40
2018-05-16T20:22:01.212Z,18.40
2018-05-16T20:24:28.377Z,18.40
2018-05-16T20:26:56.480Z,18.30
2018-05-16T20:29:23.696Z,18.30
2018-05-16T20:31:50.883Z,18.40
2018-05-16T20:34:19.602Z,18.30
2018-05-16T20:36:46.879Z,18.30
2018-05-16T20:39:14.044Z,18.30
2018-05-16T20:41:41.208Z,18.40
2018-05-16T20:44:09.273Z,18.30
2018-05-16T20:46:36.506Z,18.30
2018-05-16T20:49:04.552Z,18.30
2018-05-16T20:51:31.730Z,18.30
2018-05-16T20:53:59.159Z,18.30
2018-05-16T20:56:26.448Z,18.30
2018-05-16T20:58:54.871Z,18.30
2018-05-16T21:01:22.019Z,18.30
2018-05-16T21:03:49.180Z,18.30
2018-05-16T21:06:17.197Z,18.30
2018-05-16T21:08:44.392Z,18.30
2018-05-16T21:11:11.645Z,18.20
2018-05-16T21:13:39.879Z,18.30
2018-05-16T21:16:07.130Z,18.20
2018-05-16T21:18:34.387Z,18.30
2018-05-16T21:21:02.336Z,18.20
2018-05-16T21:23:29.605Z,18.20
2018-05-16T21:25:56.770Z,18.20
2018-05-16T21:28:23.985Z,18.20
2018-05-16T21:30:51.271Z,18.20
2018-05-16T21:33:18.517Z,18.20
2018-05-16T21:35:45.680Z,18.20
2018-05-16T21:38:12.841Z,18.20
2018-05-16T21:40:40.008Z,18.10
2018-05-16T21:43:07.240Z,18.20
2018-05-16T21:45:34.412Z,18.20
2018-05-16T21:48:01.568Z,18.10
2018-05-16T21:50:28.733Z,18.20
2018-05-16T21:52:56.668Z,18.10
2018-05-16T21:55:23.834Z,18.10
2018-05-16T21:57:51.162Z,18.10
2018-05-16T22:00:19.247Z,18.10
2018-05-16T22:02:46.414Z,18.10
2018-05-16T22:05:13.630Z,18.10
2018-05-16T22:07:41.733Z,18.10
2018-05-16T22:10:08.957Z,18.10
2018-05-16T22:12:37.128Z,18.20
2018-05-16T22:15:05.196Z,18.10
2018-05-16T22:17:32.423Z,18.10
2018-05-16T22:20:00.348Z,18.10
2018-05-16T22:22:27.543Z,18.10
2018-05-16T22:24:55.464Z,18.10
2018-05-16T22:27:22.679Z,18.10
2018-05-16T22:29:50.620Z,18.10
2018-05-16T22:32:24.298Z,18.10
2018-05-16T22:34:58.004Z,18.10
2018-05-16T22:37:31.619Z,18.10
2018-05-16T22:40:05.187Z,18.10
2018-05-16T22:42:31.987Z,18.10
2018-05-16T22:45:05.543Z,18.10
2018-05-16T22:47:33.624Z,18.10
2018-05-16T22:50:00.783Z,18.10
2018-05-16T22:52:27.939Z,18.10
2018-05-16T22:54:55.879Z,18.10
2018-05-16T22:57:23.954Z,18.10
2018-05-16T22:59:51.201Z,18.10
2018-05-16T23:02:19.159Z,18.10
2018-05-16T23:04:47.299Z,18.00
2018-05-16T23:07:16.007Z,18.00
2018-05-16T23:09:43.203Z,18.00
2018-05-16T23:12:11.264Z,18.10
2018-05-16T23:14:39.378Z,18.00
2018-05-16T23:17:07.303Z,18.00
2018-05-16T23:19:35.265Z,18.00
2018-05-16T23:22:02.519Z,18.00
2018-05-16T23:24:30.489Z,18.00
2018-05-16T23:26:57.744Z,18.00
2018-05-16T23:29:24.912Z,18.00
2018-05-16T23:31:52.145Z,18.00
2018-05-16T23:34:19.308Z,18.00
2018-05-16T23:36:46.470Z,18.00
2018-05-16T23:39:13.627Z,18.00
2018-05-16T23:41:40.787Z,18.00
2018-05-16T23:44:07.944Z,18.00
2018-05-16T23:46:35.136Z,18.00
2018-05-16T23:49:02.296Z,18.00
2018-05-16T23:51:29.460Z,18.00
2018-05-16T23:53:56.620Z,18.00
2018-05-16T23:56:23.781Z,18.00
2018-05-16T23:58:51.751Z,18.00
